createdAt,value
2019-05-16T00:02:22.729Z,3.02
2019-05-16T00:04:51.843Z,3.47
2019-05-16T00:07:28.337Z,6.75
2019-05-16T00:09:59.031Z,4.03
2019-05-16T00:12:35.082Z,4.08
2019-05-16T00:15:12.026Z,5.22
2019-05-16T00:17:54.331Z,3.47
2019-05-16T00:20:23.595Z,3.10
2019-05-16T00:22:59.160Z,3.40
2019-05-16T00:25:28.785Z,3.50
2019-05-16T00:28:05.182Z,5.03
2019-05-16T00:30:34.302Z,2.87
2019-05-16T00:33:09.545Z,2.83
2019-05-16T00:35:38.967Z,3.67
2019-05-16T00:38:08.815Z,2.65
2019-05-16T00:40:44.560Z,3.27
2019-05-16T00:43:13.735Z,4.55
2019-05-16T00:45:58.708Z,3.40
2019-05-16T00:48:33.978Z,5.10
2019-05-16T00:51:03.288Z,5.03
2019-05-16T00:53:32.389Z,3.67
2019-05-16T00:56:08.042Z,3.15
2019-05-16T00:58:38.370Z,2.85
2019-05-16T01:01:14.542Z,3.55
2019-05-16T01:03:43.668Z,3.77
2019-05-16T01:06:22.862Z,3.58
2019-05-16T01:08:49.912Z,4.90
2019-05-16T01:11:27.630Z,4.40
2019-05-16T01:13:57.874Z,3.83
2019-05-16T01:16:41.012Z,2.75
2019-05-16T01:19:10.213Z,2.45
2019-05-16T01:21:39.330Z,5.92
2019-05-16T01:24:15.430Z,2.47
2019-05-16T01:26:44.698Z,4.40
2019-05-16T01:29:20.904Z,3.08
2019-05-16T01:31:50.008Z,5.28
2019-05-16T01:34:28.342Z,5.17
2019-05-16T01:36:58.932Z,3.72
2019-05-16T01:39:34.720Z,4.08
2019-05-16T01:42:03.933Z,4.03
2019-05-16T01:44:45.982Z,2.85
2019-05-16T01:47:15.181Z,3.20
2019-05-16T01:49:50.613Z,3.47
2019-05-16T01:52:19.702Z,4.62
2019-05-16T01:54:48.926Z,3.80
2019-05-16T01:57:24.564Z,3.27
2019-05-16T01:59:53.662Z,4.62
2019-05-16T02:02:48.738Z,3.58
2019-05-16T02:05:25.189Z,4.25
2019-05-16T02:08:00.950Z,2.85
2019-05-16T02:10:30.061Z,4.78
2019-05-16T02:13:08.345Z,7.53
2019-05-16T02:15:38.364Z,2.77
2019-05-16T02:18:13.832Z,3.12
2019-05-16T02:20:42.968Z,5.60
2019-05-16T02:23:19.036Z,4.20
2019-05-16T02:25:49.202Z,2.85
2019-05-16T02:28:31.220Z,6.37
2019-05-16T02:30:56.269Z,3.35
2019-05-16T02:33:25.554Z,2.92
2019-05-16T02:36:01.895Z,6.55
2019-05-16T02:38:42.010Z,2.80
2019-05-16T02:41:10.603Z,3.70
2019-05-16T02:43:47.152Z,3.90
2019-05-16T02:46:22.391Z,3.77
2019-05-16T02:49:00.794Z,4.58
2019-05-16T02:51:31.505Z,3.27
2019-05-16T02:54:06.366Z,6.08
2019-05-16T02:56:35.504Z,5.53
2019-05-16T02:59:11.873Z,4.78
2019-05-16T03:01:41.432Z,3.98
2019-05-16T03:04:25.036Z,6.45
2019-05-16T03:06:55.058Z,5.85
2019-05-16T03:09:25.095Z,5.08
2019-05-16T03:12:04.256Z,2.87
2019-05-16T03:14:33.382Z,2.35
2019-05-16T03:17:11.488Z,3.15
2019-05-16T03:19:42.275Z,4.75
2019-05-16T03:22:22.133Z,4.05
2019-05-16T03:24:51.672Z,3.90
2019-05-16T03:27:27.036Z,4.08
2019-05-16T03:29:56.196Z,3.60
2019-05-16T03:32:34.117Z,5.47
2019-05-16T03:35:06.961Z,5.10
2019-05-16T03:37:54.996Z,3.92
2019-05-16T03:40:15.793Z,3.20
2019-05-16T03:42:52.106Z,3.90
2019-05-16T03:45:27.408Z,3.40
2019-05-16T03:48:03.795Z,2.95
2019-05-16T03:50:33.035Z,3.67
2019-05-16T03:53:02.241Z,3.67
2019-05-16T03:55:40.710Z,4.00
2019-05-16T03:58:11.782Z,4.00
2019-05-16T04:00:57.277Z,3.40
2019-05-16T04:03:28.812Z,3.12
2019-05-16T04:06:03.835Z,2.98
2019-05-16T04:08:33.011Z,3.12
2019-05-16T04:11:02.190Z,3.70
2019-05-16T04:13:41.147Z,3.00
2019-05-16T04:16:11.836Z,2.83
2019-05-16T04:18:46.833Z,2.30
2019-05-16T04:21:17.739Z,5.85
2019-05-16T04:23:53.617Z,4.03
2019-05-16T04:26:30.834Z,4.40
2019-05-16T04:29:00.777Z,3.10
2019-05-16T04:31:30.990Z,3.15
2019-05-16T04:34:07.409Z,3.35
2019-05-16T04:36:36.650Z,3.67
2019-05-16T04:39:14.130Z,3.25
2019-05-16T04:41:43.282Z,6.15
2019-05-16T04:44:25.820Z,7.75
2019-05-16T04:46:55.028Z,2.55
2019-05-16T04:49:31.933Z,6.20
2019-05-16T04:52:01.416Z,3.67
2019-05-16T04:54:36.846Z,2.60
2019-05-16T04:57:06.082Z,5.03
2019-05-16T04:59:35.328Z,4.35
2019-05-16T05:02:12.191Z,1.95
2019-05-16T05:04:50.941Z,4.30
2019-05-16T05:07:35.310Z,5.80
2019-05-16T05:10:05.062Z,3.02
2019-05-16T05:12:41.274Z,2.40
2019-05-16T05:15:14.033Z,2.52
2019-05-16T05:17:50.227Z,3.02
2019-05-16T05:20:21.053Z,2.72
2019-05-16T05:22:57.610Z,4.33
2019-05-16T05:25:26.925Z,3.58
2019-05-16T05:28:02.637Z,4.65
2019-05-16T05:30:31.825Z,3.10
2019-05-16T05:33:10.034Z,4.00
2019-05-16T05:35:40.831Z,5.00
2019-05-16T05:38:10.555Z,4.92
2019-05-16T05:40:46.364Z,4.30
2019-05-16T05:43:15.655Z,3.58
2019-05-16T05:46:00.443Z,4.65
2019-05-16T05:48:30.873Z,3.25
2019-05-16T05:51:06.767Z,6.72
2019-05-16T05:53:35.913Z,2.85
2019-05-16T05:56:12.268Z,3.15
2019-05-16T05:58:41.607Z,2.95
2019-05-16T06:01:20.248Z,10.08
2019-05-16T06:03:50.355Z,3.58
2019-05-16T06:06:32.718Z,7.05
2019-05-16T06:09:01.928Z,6.92
2019-05-16T06:11:30.975Z,3.45
2019-05-16T06:14:06.776Z,5.62
2019-05-16T06:16:35.948Z,7.25
2019-05-16T06:19:11.500Z,4.83
2019-05-16T06:21:44.928Z,7.78
2019-05-16T06:24:11.629Z,4.25
2019-05-16T06:26:47.263Z,5.65
2019-05-16T06:29:16.449Z,3.90
2019-05-16T06:31:52.706Z,4.30
2019-05-16T06:34:21.963Z,2.83
2019-05-16T06:36:51.217Z,4.33
2019-05-16T06:39:40.821Z,4.87
2019-05-16T06:42:00.528Z,3.30
2019-05-16T06:44:35.828Z,3.75
2019-05-16T06:47:19.476Z,4.28
2019-05-16T06:49:50.973Z,3.75
2019-05-16T06:52:20.014Z,3.62
2019-05-16T06:54:55.974Z,2.67
2019-05-16T06:57:25.227Z,3.90
2019-05-16T07:00:00.999Z,3.10
2019-05-16T07:02:34.253Z,4.35
2019-05-16T07:05:01.339Z,4.30
2019-05-16T07:07:40.149Z,3.17
2019-05-16T07:10:09.818Z,4.05
2019-05-16T07:12:46.486Z,3.17
2019-05-16T07:15:16.936Z,3.10
2019-05-16T07:17:46.109Z,5.33
2019-05-16T07:20:21.923Z,4.00
2019-05-16T07:22:51.107Z,3.00
2019-05-16T07:25:27.204Z,5.85
2019-05-16T07:27:56.292Z,4.17
2019-05-16T07:30:26.329Z,3.15
2019-05-16T07:33:02.451Z,3.30
2019-05-16T07:35:31.620Z,4.92
2019-05-16T07:38:07.117Z,5.37
2019-05-16T07:40:43.424Z,3.10
2019-05-16T07:43:20.500Z,3.47
2019-05-16T07:45:51.322Z,5.95
2019-05-16T07:48:21.831Z,3.17
2019-05-16T07:51:00.534Z,3.45
2019-05-16T07:53:33.083Z,4.15
2019-05-16T07:56:07.498Z,5.05
2019-05-16T07:58:36.750Z,5.28
2019-05-16T08:01:27.832Z,6.50
2019-05-16T08:04:03.969Z,7.15
2019-05-16T08:06:47.268Z,4.55
2019-05-16T08:09:22.721Z,4.10
2019-05-16T08:11:58.374Z,3.67
2019-05-16T08:14:30.249Z,3.05
2019-05-16T08:17:00.966Z,3.87
2019-05-16T08:19:35.711Z,3.35
2019-05-16T08:22:04.938Z,4.72
2019-05-16T08:24:41.146Z,2.70
2019-05-16T08:27:12.252Z,4.03
2019-05-16T08:29:41.304Z,2.80
2019-05-16T08:32:17.065Z,3.58
2019-05-16T08:34:47.481Z,2.70
2019-05-16T08:37:36.782Z,2.52
2019-05-16T08:40:01.779Z,4.05
2019-05-16T08:42:41.269Z,3.22
2019-05-16T08:45:12.790Z,2.10
2019-05-16T08:47:47.474Z,2.45
2019-05-16T08:50:16.805Z,2.90
2019-05-16T08:52:46.153Z,4.85
2019-05-16T08:55:22.412Z,3.67
2019-05-16T08:57:52.811Z,3.20
2019-05-16T09:00:33.366Z,5.55
2019-05-16T09:03:01.789Z,4.97
2019-05-16T09:05:31.622Z,4.30
2019-05-16T09:08:08.202Z,3.12
2019-05-16T09:10:55.632Z,2.80
2019-05-16T09:13:21.818Z,4.25
2019-05-16T09:15:51.030Z,3.45
2019-05-16T09:18:20.150Z,6.47
2019-05-16T09:20:57.847Z,3.67
2019-05-16T09:23:27.567Z,3.35
2019-05-16T09:26:03.148Z,3.70
2019-05-16T09:28:32.297Z,4.12
2019-05-16T09:31:01.507Z,3.95
2019-05-16T09:33:37.702Z,6.27
2019-05-16T09:36:13.344Z,3.87
2019-05-16T09:38:42.515Z,5.17
2019-05-16T09:41:28.792Z,2.90
2019-05-16T09:43:58.913Z,6.53
2019-05-16T09:46:27.678Z,4.10
2019-05-16T09:49:16.711Z,3.97
2019-05-16T09:51:37.421Z,2.80
2019-05-16T09:54:11.884Z,4.87
2019-05-16T09:56:41.025Z,3.67
2019-05-16T09:59:17.375Z,3.77
2019-05-16T10:01:47.862Z,10.23
2019-05-16T10:04:26.553Z,3.87
2019-05-16T10:06:57.299Z,3.72
2019-05-16T10:09:44.945Z,3.23
2019-05-16T10:12:15.506Z,5.40
2019-05-16T10:14:49.167Z,5.00
2019-05-16T10:17:18.409Z,6.87
2019-05-16T10:19:47.762Z,3.67
2019-05-16T10:22:23.902Z,4.63
2019-05-16T10:24:53.214Z,3.30
2019-05-16T10:27:29.173Z,4.83
2019-05-16T10:30:01.196Z,3.70
2019-05-16T10:32:36.537Z,5.20
2019-05-16T10:35:07.704Z,5.73
2019-05-16T10:37:46.847Z,3.70
2019-05-16T10:40:21.922Z,5.33
2019-05-16T10:42:58.159Z,4.97
2019-05-16T10:45:27.437Z,3.23
2019-05-16T10:48:04.084Z,5.33
2019-05-16T10:50:33.251Z,3.87
2019-05-16T10:53:28.068Z,5.23
2019-05-16T10:55:39.811Z,4.23
2019-05-16T10:58:09.018Z,6.23
2019-05-16T11:01:09.925Z,3.70
2019-05-16T11:03:17.143Z,6.60
2019-05-16T11:06:03.015Z,5.10
2019-05-16T11:08:23.773Z,4.23
2019-05-16T11:11:07.593Z,4.57
2019-05-16T11:13:37.096Z,3.87
2019-05-16T11:16:07.008Z,6.53
2019-05-16T11:18:44.071Z,5.70
2019-05-16T11:21:13.249Z,4.33
2019-05-16T11:23:49.364Z,6.53
2019-05-16T11:26:18.818Z,4.00
2019-05-16T11:28:56.747Z,6.33
2019-05-16T11:31:26.836Z,7.57
2019-05-16T11:34:02.730Z,5.10
2019-05-16T11:36:38.603Z,4.80
2019-05-16T11:39:33.545Z,7.17
2019-05-16T11:42:09.505Z,3.87
2019-05-16T11:44:52.706Z,5.30
2019-05-16T11:47:21.831Z,9.90
2019-05-16T11:49:57.547Z,5.20
2019-05-16T11:52:26.735Z,6.93
2019-05-16T11:54:57.204Z,5.60
2019-05-16T11:57:32.787Z,6.80
2019-05-16T12:00:01.986Z,6.67
2019-05-16T12:02:42.359Z,7.83
2019-05-16T12:05:09.487Z,6.03
2019-05-16T12:07:44.450Z,5.97
2019-05-16T12:10:18.220Z,4.33
2019-05-16T12:12:47.424Z,7.60
2019-05-16T12:15:23.621Z,4.20
2019-05-16T12:18:00.770Z,6.47
2019-05-16T12:20:30.128Z,7.33
2019-05-16T12:22:59.306Z,7.13
2019-05-16T12:25:28.524Z,12.60
2019-05-16T12:28:04.425Z,6.33
2019-05-16T12:30:33.606Z,5.90
2019-05-16T12:33:09.298Z,5.40
2019-05-16T12:35:38.573Z,8.33
2019-05-16T12:38:21.131Z,5.47
2019-05-16T12:40:56.976Z,6.87
2019-05-16T12:43:48.812Z,5.13
2019-05-16T12:46:11.083Z,6.97
2019-05-16T12:48:40.429Z,9.33
2019-05-16T12:51:18.332Z,7.93
2019-05-16T12:53:47.924Z,6.63
2019-05-16T12:56:26.912Z,8.37
2019-05-16T12:58:54.774Z,5.73
2019-05-16T13:01:34.442Z,4.70
2019-05-16T13:04:01.440Z,8.67
2019-05-16T13:06:30.624Z,7.03
2019-05-16T13:09:06.963Z,7.60
2019-05-16T13:11:37.755Z,5.47
2019-05-16T13:14:16.832Z,4.67
2019-05-16T13:16:47.271Z,5.80
2019-05-16T13:19:23.817Z,4.60
2019-05-16T13:21:53.146Z,5.30
2019-05-16T13:24:29.108Z,5.73
2019-05-16T13:26:58.251Z,5.00
2019-05-16T13:29:33.733Z,5.20
2019-05-16T13:32:02.999Z,4.53
2019-05-16T13:34:32.260Z,4.53
2019-05-16T13:37:08.072Z,5.90
2019-05-16T13:39:49.883Z,8.63
2019-05-16T13:42:28.408Z,7.50
2019-05-16T13:45:06.766Z,3.53
2019-05-16T13:47:37.342Z,4.20
2019-05-16T13:50:12.916Z,6.80
2019-05-16T13:52:42.117Z,4.67
2019-05-16T13:55:11.381Z,7.17
2019-05-16T13:57:47.226Z,5.50
2019-05-16T14:00:17.601Z,7.67
2019-05-16T14:02:53.102Z,6.40
2019-05-16T14:05:22.513Z,7.73
2019-05-16T14:07:58.689Z,7.27
2019-05-16T14:10:30.637Z,7.97
2019-05-16T14:13:07.714Z,7.33
2019-05-16T14:15:37.178Z,9.10
2019-05-16T14:18:13.152Z,7.40
2019-05-16T14:20:42.343Z,6.80
2019-05-16T14:23:18.110Z,6.77
2019-05-16T14:25:48.437Z,8.77
2019-05-16T14:28:24.727Z,6.53
2019-05-16T14:30:53.950Z,8.10
2019-05-16T14:33:23.146Z,9.80
2019-05-16T14:35:58.967Z,7.73
2019-05-16T14:38:37.180Z,9.63
2019-05-16T14:41:17.191Z,7.23
2019-05-16T14:43:49.853Z,9.77
2019-05-16T14:46:27.493Z,7.07
2019-05-16T14:48:56.806Z,7.67
2019-05-16T14:51:29.355Z,6.30
2019-05-16T14:54:03.363Z,4.13
2019-05-16T14:56:32.570Z,4.80
2019-05-16T14:59:08.776Z,5.97
2019-05-16T15:01:38.111Z,8.77
2019-05-16T15:04:14.976Z,19.17
2019-05-16T15:06:44.243Z,8.20
2019-05-16T15:09:20.856Z,7.67
2019-05-16T15:11:50.108Z,5.77
2019-05-16T15:14:28.055Z,6.43
2019-05-16T15:16:57.576Z,6.33
2019-05-16T15:19:33.929Z,4.70
2019-05-16T15:22:03.518Z,7.73
2019-05-16T15:24:39.511Z,3.73
2019-05-16T15:27:08.650Z,5.70
2019-05-16T15:29:43.950Z,6.53
2019-05-16T15:32:13.212Z,6.10
2019-05-16T15:35:07.935Z,5.00
2019-05-16T15:37:43.876Z,5.03
2019-05-16T15:40:26.794Z,9.40
2019-05-16T15:42:58.867Z,3.50
2019-05-16T15:45:49.908Z,7.63
2019-05-16T15:48:17.472Z,5.53
2019-05-16T15:50:52.746Z,5.00
2019-05-16T15:53:22.038Z,4.73
2019-05-16T15:55:57.890Z,3.30
2019-05-16T15:58:27.162Z,6.87
2019-05-16T16:00:57.983Z,4.10
2019-05-16T16:03:34.298Z,4.70
2019-05-16T16:06:03.526Z,7.95
2019-05-16T16:08:41.380Z,5.05
2019-05-16T16:11:11.626Z,3.83
2019-05-16T16:13:48.461Z,5.90
2019-05-16T16:16:18.086Z,8.87
2019-05-16T16:18:57.276Z,7.97
2019-05-16T16:21:27.440Z,6.10
2019-05-16T16:23:57.328Z,6.73
2019-05-16T16:26:34.142Z,7.70
2019-05-16T16:29:03.428Z,13.17
2019-05-16T16:31:39.699Z,9.37
2019-05-16T16:34:08.870Z,9.20
2019-05-16T16:36:46.978Z,9.80
2019-05-16T16:39:21.748Z,7.83
2019-05-16T16:41:57.325Z,9.73
2019-05-16T16:44:27.465Z,11.70
2019-05-16T16:47:06.579Z,10.70
2019-05-16T16:49:39.591Z,14.17
2019-05-16T16:52:12.621Z,8.80
2019-05-16T16:54:42.013Z,13.03
2019-05-16T16:57:11.226Z,13.27
2019-05-16T16:59:47.790Z,10.27
2019-05-16T17:02:17.282Z,7.77
2019-05-16T17:04:53.098Z,7.70
2019-05-16T17:07:22.383Z,9.57
2019-05-16T17:09:58.141Z,7.67
2019-05-16T17:12:27.459Z,8.03
2019-05-16T17:15:03.780Z,12.40
2019-05-16T17:17:33.407Z,10.67
2019-05-16T17:20:09.076Z,8.07
2019-05-16T17:22:38.384Z,13.13
2019-05-16T17:25:14.871Z,9.40
2019-05-16T17:27:46.653Z,16.40
2019-05-16T17:30:25.975Z,15.50
2019-05-16T17:32:56.641Z,16.00
2019-05-16T17:35:38.608Z,12.43
2019-05-16T17:38:13.940Z,15.10
2019-05-16T17:40:57.563Z,13.13
2019-05-16T17:43:27.144Z,29.37
2019-05-16T17:46:03.447Z,11.07
2019-05-16T17:48:33.804Z,16.13
2019-05-16T17:51:03.071Z,15.67
2019-05-16T17:53:39.333Z,10.03
2019-05-16T17:56:08.538Z,13.37
2019-05-16T17:58:44.963Z,11.23
2019-05-16T18:01:17.090Z,86.73
2019-05-16T18:03:46.943Z,16.97
2019-05-16T18:06:42.725Z,10.40
2019-05-16T18:09:12.327Z,17.23
2019-05-16T18:11:49.259Z,27.73
2019-05-16T18:14:18.552Z,20.00
2019-05-16T18:17:01.170Z,13.63
2019-05-16T18:19:27.395Z,10.37
2019-05-16T18:22:22.352Z,12.53
2019-05-16T18:24:51.504Z,14.50
2019-05-16T18:27:27.682Z,11.65
2019-05-16T18:29:57.286Z,11.67
2019-05-16T18:32:33.253Z,10.50
2019-05-16T18:35:02.518Z,11.13
2019-05-16T18:37:41.397Z,9.47
2019-05-16T18:40:27.126Z,14.13
2019-05-16T18:43:03.583Z,10.47
2019-05-16T18:45:32.755Z,15.53
2019-05-16T18:48:13.215Z,10.00
2019-05-16T18:50:42.700Z,23.77
2019-05-16T18:53:18.994Z,8.50
2019-05-16T18:55:48.302Z,9.65
2019-05-16T18:58:27.002Z,6.90
2019-05-16T19:00:56.566Z,6.85
2019-05-16T19:03:27.130Z,14.28
2019-05-16T19:06:03.306Z,12.75
2019-05-16T19:08:33.712Z,11.38
2019-05-16T19:11:09.436Z,15.63
2019-05-16T19:13:38.995Z,18.42
2019-05-16T19:16:16.841Z,10.28
2019-05-16T19:18:45.863Z,14.63
2019-05-16T19:21:16.890Z,16.80
2019-05-16T19:23:52.580Z,13.98
2019-05-16T19:26:21.813Z,9.75
2019-05-16T19:28:58.659Z,11.95
2019-05-16T19:31:27.853Z,9.50
2019-05-16T19:34:04.041Z,8.70
2019-05-16T19:36:33.271Z,11.03
2019-05-16T19:39:15.775Z,9.23
2019-05-16T19:41:52.577Z,9.78
2019-05-16T19:44:28.725Z,9.08
2019-05-16T19:47:01.061Z,8.98
2019-05-16T19:49:37.161Z,8.25
2019-05-16T19:52:07.288Z,8.05
2019-05-16T19:54:43.282Z,8.35
2019-05-16T19:57:12.391Z,10.43
2019-05-16T19:59:48.528Z,10.05
2019-05-16T20:02:20.449Z,9.73
2019-05-16T20:04:56.374Z,14.07
2019-05-16T20:07:26.363Z,10.00
2019-05-16T20:10:01.911Z,11.00
2019-05-16T20:12:31.160Z,12.45
2019-05-16T20:15:11.380Z,10.55
2019-05-16T20:17:50.878Z,11.43
2019-05-16T20:20:09.809Z,10.72
2019-05-16T20:22:46.252Z,15.45
2019-05-16T20:25:16.486Z,11.68
2019-05-16T20:27:52.151Z,12.00
2019-05-16T20:30:21.815Z,12.15
2019-05-16T20:32:57.406Z,13.28
2019-05-16T20:35:26.812Z,14.90
2019-05-16T20:38:03.214Z,11.60
2019-05-16T20:40:51.492Z,11.78
2019-05-16T20:43:27.434Z,12.60
2019-05-16T20:45:57.238Z,13.00
2019-05-16T20:48:33.801Z,18.85
2019-05-16T20:51:07.251Z,13.80
2019-05-16T20:53:43.746Z,13.95
2019-05-16T20:56:13.199Z,14.15
2019-05-16T20:58:49.507Z,15.75
2019-05-16T21:01:18.798Z,13.98
2019-05-16T21:03:49.766Z,16.23
2019-05-16T21:06:28.205Z,16.97
2019-05-16T21:09:03.685Z,14.50
2019-05-16T21:11:32.911Z,18.35
2019-05-16T21:14:02.044Z,19.37
2019-05-16T21:16:38.011Z,17.85
2019-05-16T21:19:07.432Z,16.12
2019-05-16T21:21:43.792Z,19.60
2019-05-16T21:24:13.052Z,17.15
2019-05-16T21:26:48.785Z,16.75
2019-05-16T21:29:19.592Z,18.60
2019-05-16T21:31:56.609Z,19.90
2019-05-16T21:34:27.189Z,16.70
2019-05-16T21:37:13.908Z,18.37
2019-05-16T21:39:59.413Z,18.82
2019-05-16T21:42:32.864Z,17.73
2019-05-16T21:45:02.140Z,23.07
2019-05-16T21:47:37.891Z,18.30
2019-05-16T21:50:08.076Z,18.02
2019-05-16T21:52:43.800Z,19.92
2019-05-16T21:55:13.246Z,21.35
2019-05-16T21:57:42.631Z,21.07
2019-05-16T22:00:27.474Z,20.50
2019-05-16T22:02:57.321Z,20.05
2019-05-16T22:05:33.451Z,20.90
2019-05-16T22:08:02.786Z,21.60
2019-05-16T22:10:41.138Z,20.80
2019-05-16T22:13:10.410Z,20.62
2019-05-16T22:15:46.701Z,19.05
2019-05-16T22:18:16.642Z,22.87
2019-05-16T22:20:52.702Z,20.57
2019-05-16T22:23:21.850Z,22.32
2019-05-16T22:25:57.632Z,20.80
2019-05-16T22:28:29.687Z,19.67
2019-05-16T22:31:07.162Z,17.15
2019-05-16T22:33:37.431Z,19.95
2019-05-16T22:36:13.989Z,18.37
2019-05-16T22:38:43.154Z,18.62
2019-05-16T22:41:33.243Z,21.00
2019-05-16T22:44:02.409Z,20.12
2019-05-16T22:46:38.601Z,20.27
2019-05-16T22:49:07.936Z,21.60
2019-05-16T22:51:44.016Z,20.17
2019-05-16T22:54:13.287Z,22.07
2019-05-16T22:56:42.464Z,19.25
2019-05-16T22:59:18.886Z,20.17
2019-05-16T23:01:48.110Z,19.42
2019-05-16T23:04:24.328Z,19.20
2019-05-16T23:06:53.584Z,19.42
2019-05-16T23:09:29.873Z,21.42
2019-05-16T23:11:59.018Z,20.23
2019-05-16T23:14:34.489Z,22.85
2019-05-16T23:17:06.509Z,22.00
2019-05-16T23:19:41.937Z,21.12
2019-05-16T23:22:11.153Z,20.52
2019-05-16T23:24:46.945Z,29.95
2019-05-16T23:27:16.065Z,25.08
2019-05-16T23:29:52.325Z,21.82
2019-05-16T23:32:21.917Z,24.57
2019-05-16T23:34:58.209Z,22.02
2019-05-16T23:37:27.531Z,20.70
2019-05-16T23:40:02.868Z,22.52
2019-05-16T23:42:39.330Z,22.77
2019-05-16T23:45:17.187Z,22.73
2019-05-16T23:47:47.256Z,23.20
2019-05-16T23:50:23.373Z,23.55
2019-05-16T23:53:11.737Z,21.68
2019-05-16T23:55:48.098Z,19.73
2019-05-16T23:58:17.394Z,21.75
